sensor_id;sensor_type;location;lat;lon;timestamp;P1;durP1;ratioP1;P2;durP2;ratioP2
1799;SDS011;919;48.274;12.292;2022-07-05T00:01:09;2.20;;;1.60;;
1799;SDS011;919;48.274;12.292;2022-07-05T00:03:36;1.77;;;1.67;;
1799;SDS011;919;48.274;12.292;2022-07-05T00:06:03;3.57;;;1.90;;
1799;SDS011;919;48.274;12.292;2022-07-05T00:08:30;2.30;;;2.10;;
1799;SDS011;919;48.274;12.292;2022-07-05T00:10:57;2.17;;;1.97;;
1799;SDS011;919;48.274;12.292;2022-07-05T00:13:25;2.10;;;1.87;;
1799;SDS011;919;48.274;12.292;2022-07-05T00:15:51;1.60;;;1.50;;
1799;SDS011;919;48.274;12.292;2022-07-05T00:18:18;2.53;;;1.50;;
1799;SDS011;919;48.274;12.292;2022-07-05T00:20:45;3.00;;;2.17;;
1799;SDS011;919;48.274;12.292;2022-07-05T00:23:11;3.10;;;2.10;;
1799;SDS011;919;48.274;12.292;2022-07-05T00:25:38;2.27;;;1.83;;
1799;SDS011;919;48.274;12.292;2022-07-05T00:28:05;1.90;;;1.73;;
1799;SDS011;919;48.274;12.292;2022-07-05T00:30:33;2.17;;;1.97;;
1799;SDS011;919;48.274;12.292;2022-07-05T00:32:59;2.30;;;2.10;;
1799;SDS011;919;48.274;12.292;2022-07-05T00:35:26;1.53;;;1.43;;
1799;SDS011;919;48.274;12.292;2022-07-05T00:37:53;2.43;;;1.93;;
1799;SDS011;919;48.274;12.292;2022-07-05T00:40:20;2.13;;;2.00;;
1799;SDS011;919;48.274;12.292;2022-07-05T00:42:47;2.03;;;1.93;;
1799;SDS011;919;48.274;12.292;2022-07-05T00:45:13;2.30;;;2.03;;
1799;SDS011;919;48.274;12.292;2022-07-05T00:47:41;2.60;;;2.40;;
1799;SDS011;919;48.274;12.292;2022-07-05T00:50:08;2.27;;;1.97;;
1799;SDS011;919;48.274;12.292;2022-07-05T00:52:35;2.40;;;1.77;;
1799;SDS011;919;48.274;12.292;2022-07-05T00:55:02;2.13;;;2.00;;
1799;SDS011;919;48.274;12.292;2022-07-05T00:57:29;2.67;;;2.30;;
1799;SDS011;919;48.274;12.292;2022-07-05T00:59:58;2.93;;;2.47;;
1799;SDS011;919;48.274;12.292;2022-07-05T01:02:25;2.40;;;2.20;;
1799;SDS011;919;48.274;12.292;2022-07-05T01:04:53;2.10;;;2.00;;
1799;SDS011;919;48.274;12.292;2022-07-05T01:07:21;2.10;;;2.00;;
1799;SDS011;919;48.274;12.292;2022-07-05T01:09:48;2.80;;;2.60;;
1799;SDS011;919;48.274;12.292;2022-07-05T01:12:15;2.03;;;1.83;;
1799;SDS011;919;48.274;12.292;2022-07-05T01:14:42;2.50;;;2.30;;
1799;SDS011;919;48.274;12.292;2022-07-05T01:17:10;4.97;;;2.33;;
1799;SDS011;919;48.274;12.292;2022-07-05T01:19:37;3.03;;;2.80;;
1799;SDS011;919;48.274;12.292;2022-07-05T01:22:06;3.63;;;2.83;;
1799;SDS011;919;48.274;12.292;2022-07-05T01:24:43;2.50;;;2.30;;
1799;SDS011;919;48.274;12.292;2022-07-05T01:27:10;2.87;;;2.33;;
1799;SDS011;919;48.274;12.292;2022-07-05T01:29:38;2.50;;;2.30;;
1799;SDS011;919;48.274;12.292;2022-07-05T01:32:05;3.00;;;2.67;;
1799;SDS011;919;48.274;12.292;2022-07-05T01:34:32;2.63;;;2.43;;
1799;SDS011;919;48.274;12.292;2022-07-05T01:37:03;2.37;;;2.27;;
1799;SDS011;919;48.274;12.292;2022-07-05T01:39:30;4.40;;;2.80;;
1799;SDS011;919;48.274;12.292;2022-07-05T01:41:58;4.90;;;2.70;;
1799;SDS011;919;48.274;12.292;2022-07-05T01:44:25;5.87;;;2.73;;
1799;SDS011;919;48.274;12.292;2022-07-05T01:46:54;3.47;;;2.40;;
1799;SDS011;919;48.274;12.292;2022-07-05T01:49:24;2.73;;;2.53;;
1799;SDS011;919;48.274;12.292;2022-07-05T01:51:53;3.00;;;2.43;;
1799;SDS011;919;48.274;12.292;2022-07-05T01:54:23;2.83;;;2.63;;
1799;SDS011;919;48.274;12.292;2022-07-05T01:56:50;2.97;;;2.17;;
1799;SDS011;919;48.274;12.292;2022-07-05T01:59:18;3.07;;;2.77;;
1799;SDS011;919;48.274;12.292;2022-07-05T02:01:45;2.97;;;2.77;;
1799;SDS011;919;48.274;12.292;2022-07-05T02:04:11;3.80;;;2.63;;
1799;SDS011;919;48.274;12.292;2022-07-05T02:06:39;2.53;;;2.33;;
1799;SDS011;919;48.274;12.292;2022-07-05T02:09:06;7.33;;;2.90;;
1799;SDS011;919;48.274;12.292;2022-07-05T02:11:33;2.80;;;2.60;;
1799;SDS011;919;48.274;12.292;2022-07-05T02:14:00;4.33;;;3.00;;
1799;SDS011;919;48.274;12.292;2022-07-05T02:16:28;2.87;;;2.67;;
1799;SDS011;919;48.274;12.292;2022-07-05T02:18:55;2.60;;;2.50;;
1799;SDS011;919;48.274;12.292;2022-07-05T02:21:22;2.57;;;2.37;;
1799;SDS011;919;48.274;12.292;2022-07-05T02:23:49;2.60;;;2.40;;
1799;SDS011;919;48.274;12.292;2022-07-05T02:26:15;4.67;;;2.80;;
1799;SDS011;919;48.274;12.292;2022-07-05T02:28:42;3.27;;;2.97;;
1799;SDS011;919;48.274;12.292;2022-07-05T02:31:09;4.77;;;3.20;;
1799;SDS011;919;48.274;12.292;2022-07-05T02:33:37;3.60;;;3.30;;
1799;SDS011;919;48.274;12.292;2022-07-05T02:36:08;2.43;;;2.33;;
1799;SDS011;919;48.274;12.292;2022-07-05T02:38:36;2.70;;;2.50;;
1799;SDS011;919;48.274;12.292;2022-07-05T02:41:04;3.67;;;2.93;;
1799;SDS011;919;48.274;12.292;2022-07-05T02:43:31;3.07;;;2.70;;
1799;SDS011;919;48.274;12.292;2022-07-05T02:45:58;3.00;;;2.80;;
1799;SDS011;919;48.274;12.292;2022-07-05T02:48:25;2.93;;;2.70;;
1799;SDS011;919;48.274;12.292;2022-07-05T02:50:53;4.53;;;2.73;;
1799;SDS011;919;48.274;12.292;2022-07-05T02:53:20;3.10;;;2.80;;
1799;SDS011;919;48.274;12.292;2022-07-05T02:55:47;2.33;;;2.20;;
1799;SDS011;919;48.274;12.292;2022-07-05T02:58:14;3.93;;;3.03;;
1799;SDS011;919;48.274;12.292;2022-07-05T03:00:41;3.97;;;3.57;;
1799;SDS011;919;48.274;12.292;2022-07-05T03:03:08;19.03;;;3.83;;
1799;SDS011;919;48.274;12.292;2022-07-05T03:05:35;4.47;;;3.40;;
1799;SDS011;919;48.274;12.292;2022-07-05T03:08:03;5.00;;;3.40;;
1799;SDS011;919;48.274;12.292;2022-07-05T03:10:30;3.40;;;3.17;;
1799;SDS011;919;48.274;12.292;2022-07-05T03:12:57;3.50;;;3.20;;
1799;SDS011;919;48.274;12.292;2022-07-05T03:15:23;3.37;;;3.07;;
1799;SDS011;919;48.274;12.292;2022-07-05T03:17:50;3.10;;;2.90;;
1799;SDS011;919;48.274;12.292;2022-07-05T03:20:17;2.87;;;2.53;;
1799;SDS011;919;48.274;12.292;2022-07-05T03:22:44;4.03;;;3.53;;
1799;SDS011;919;48.274;12.292;2022-07-05T03:25:12;2.43;;;2.33;;
1799;SDS011;919;48.274;12.292;2022-07-05T03:27:38;2.67;;;2.47;;
1799;SDS011;919;48.274;12.292;2022-07-05T03:30:06;3.50;;;3.20;;
1799;SDS011;919;48.274;12.292;2022-07-05T03:32:34;3.90;;;3.43;;
1799;SDS011;919;48.274;12.292;2022-07-05T03:35:01;3.43;;;3.13;;
1799;SDS011;919;48.274;12.292;2022-07-05T03:37:28;2.63;;;2.43;;
1799;SDS011;919;48.274;12.292;2022-07-05T03:39:54;3.40;;;3.03;;
1799;SDS011;919;48.274;12.292;2022-07-05T03:42:22;3.30;;;3.00;;
1799;SDS011;919;48.274;12.292;2022-07-05T03:44:49;3.20;;;3.00;;
1799;SDS011;919;48.274;12.292;2022-07-05T03:47:16;2.87;;;2.67;;
1799;SDS011;919;48.274;12.292;2022-07-05T03:49:42;4.37;;;3.20;;
1799;SDS011;919;48.274;12.292;2022-07-05T03:52:09;3.30;;;3.00;;
1799;SDS011;919;48.274;12.292;2022-07-05T03:54:36;3.13;;;2.90;;
1799;SDS011;919;48.274;12.292;2022-07-05T03:57:03;3.50;;;3.00;;
1799;SDS011;919;48.274;12.292;2022-07-05T03:59:31;2.70;;;2.50;;
1799;SDS011;919;48.274;12.292;2022-07-05T04:01:58;2.50;;;2.40;;
1799;SDS011;919;48.274;12.292;2022-07-05T04:04:24;2.30;;;2.20;;
1799;SDS011;919;48.274;12.292;2022-07-05T04:06:51;3.27;;;2.97;;
1799;SDS011;919;48.274;12.292;2022-07-05T04:09:18;2.90;;;2.57;;
1799;SDS011;919;48.274;12.292;2022-07-05T04:11:45;4.10;;;3.00;;
1799;SDS011;919;48.274;12.292;2022-07-05T04:14:11;2.70;;;2.60;;
1799;SDS011;919;48.274;12.292;2022-07-05T04:16:39;3.03;;;2.77;;
1799;SDS011;919;48.274;12.292;2022-07-05T04:19:06;3.20;;;2.90;;
1799;SDS011;919;48.274;12.292;2022-07-05T04:21:33;3.00;;;2.80;;
1799;SDS011;919;48.274;12.292;2022-07-05T04:23:59;2.90;;;2.70;;
1799;SDS011;919;48.274;12.292;2022-07-05T04:26:26;3.50;;;3.30;;
1799;SDS011;919;48.274;12.292;2022-07-05T04:28:53;5.53;;;2.60;;
1799;SDS011;919;48.274;12.292;2022-07-05T04:31:20;2.40;;;2.20;;
1799;SDS011;919;48.274;12.292;2022-07-05T04:33:48;3.07;;;2.80;;
1799;SDS011;919;48.274;12.292;2022-07-05T04:36:15;2.70;;;2.50;;
1799;SDS011;919;48.274;12.292;2022-07-05T04:38:42;3.07;;;2.87;;
1799;SDS011;919;48.274;12.292;2022-07-05T04:41:08;2.67;;;2.47;;
1799;SDS011;919;48.274;12.292;2022-07-05T04:43:35;3.30;;;2.53;;
1799;SDS011;919;48.274;12.292;2022-07-05T04:46:02;2.80;;;2.60;;
1799;SDS011;919;48.274;12.292;2022-07-05T04:48:29;3.30;;;2.80;;
1799;SDS011;919;48.274;12.292;2022-07-05T04:50:57;3.00;;;2.70;;
1799;SDS011;919;48.274;12.292;2022-07-05T04:53:24;3.70;;;3.40;;
1799;SDS011;919;48.274;12.292;2022-07-05T04:55:51;2.60;;;2.40;;
1799;SDS011;919;48.274;12.292;2022-07-05T04:58:17;3.77;;;3.50;;
1799;SDS011;919;48.274;12.292;2022-07-05T05:00:44;3.40;;;3.13;;
1799;SDS011;919;48.274;12.292;2022-07-05T05:03:11;4.47;;;3.30;;
1799;SDS011;919;48.274;12.292;2022-07-05T05:05:38;3.10;;;2.90;;
1799;SDS011;919;48.274;12.292;2022-07-05T05:08:06;3.20;;;3.00;;
1799;SDS011;919;48.274;12.292;2022-07-05T05:10:32;3.80;;;3.40;;
1799;SDS011;919;48.274;12.292;2022-07-05T05:12:59;3.33;;;3.13;;
1799;SDS011;919;48.274;12.292;2022-07-05T05:15:26;3.20;;;3.00;;
1799;SDS011;919;48.274;12.292;2022-07-05T05:17:52;3.63;;;3.30;;
1799;SDS011;919;48.274;12.292;2022-07-05T05:20:19;3.10;;;2.90;;
1799;SDS011;919;48.274;12.292;2022-07-05T05:22:46;3.50;;;3.30;;
1799;SDS011;919;48.274;12.292;2022-07-05T05:25:14;8.03;;;6.60;;
1799;SDS011;919;48.274;12.292;2022-07-05T05:27:42;2.60;;;2.50;;
1799;SDS011;919;48.274;12.292;2022-07-05T05:30:10;3.00;;;2.80;;
1799;SDS011;919;48.274;12.292;2022-07-05T05:32:38;3.00;;;2.70;;
1799;SDS011;919;48.274;12.292;2022-07-05T05:35:05;3.37;;;2.87;;
1799;SDS011;919;48.274;12.292;2022-07-05T05:37:44;2.90;;;2.70;;
1799;SDS011;919;48.274;12.292;2022-07-05T05:40:11;2.73;;;2.53;;
1799;SDS011;919;48.274;12.292;2022-07-05T05:42:39;2.50;;;2.40;;
1799;SDS011;919;48.274;12.292;2022-07-05T05:45:06;3.23;;;3.00;;
1799;SDS011;919;48.274;12.292;2022-07-05T05:47:41;3.73;;;3.43;;
1799;SDS011;919;48.274;12.292;2022-07-05T05:50:09;3.33;;;3.07;;
1799;SDS011;919;48.274;12.292;2022-07-05T05:52:36;2.77;;;2.57;;
1799;SDS011;919;48.274;12.292;2022-07-05T05:55:03;4.90;;;2.47;;
1799;SDS011;919;48.274;12.292;2022-07-05T05:57:31;4.70;;;2.77;;
1799;SDS011;919;48.274;12.292;2022-07-05T05:59:59;2.67;;;2.47;;
1799;SDS011;919;48.274;12.292;2022-07-05T06:02:26;2.60;;;2.20;;
1799;SDS011;919;48.274;12.292;2022-07-05T06:04:52;3.03;;;2.73;;
1799;SDS011;919;48.274;12.292;2022-07-05T06:07:19;2.30;;;2.20;;
1799;SDS011;919;48.274;12.292;2022-07-05T06:09:46;2.87;;;2.67;;
1799;SDS011;919;48.274;12.292;2022-07-05T06:12:13;3.20;;;2.50;;
1799;SDS011;919;48.274;12.292;2022-07-05T06:14:39;2.93;;;2.43;;
1799;SDS011;919;48.274;12.292;2022-07-05T06:17:08;3.53;;;2.90;;
1799;SDS011;919;48.274;12.292;2022-07-05T06:19:35;2.33;;;2.23;;
1799;SDS011;919;48.274;12.292;2022-07-05T06:22:01;5.20;;;2.70;;
1799;SDS011;919;48.274;12.292;2022-07-05T06:24:28;2.97;;;2.20;;
1799;SDS011;919;48.274;12.292;2022-07-05T06:26:55;2.23;;;2.13;;
1799;SDS011;919;48.274;12.292;2022-07-05T06:29:22;2.47;;;2.27;;
1799;SDS011;919;48.274;12.292;2022-07-05T06:31:49;2.07;;;1.80;;
1799;SDS011;919;48.274;12.292;2022-07-05T06:34:17;5.63;;;2.30;;
1799;SDS011;919;48.274;12.292;2022-07-05T06:36:44;2.60;;;2.40;;
1799;SDS011;919;48.274;12.292;2022-07-05T06:39:11;2.90;;;2.70;;
1799;SDS011;919;48.274;12.292;2022-07-05T06:41:38;2.90;;;2.70;;
1799;SDS011;919;48.274;12.292;2022-07-05T06:44:04;3.07;;;2.63;;
1799;SDS011;919;48.274;12.292;2022-07-05T06:46:31;2.90;;;2.70;;
1799;SDS011;919;48.274;12.292;2022-07-05T06:49:10;4.17;;;3.77;;
1799;SDS011;919;48.274;12.292;2022-07-05T06:51:38;3.33;;;3.07;;
1799;SDS011;919;48.274;12.292;2022-07-05T06:54:05;3.27;;;2.97;;
1799;SDS011;919;48.274;12.292;2022-07-05T06:56:32;3.70;;;3.40;;
1799;SDS011;919;48.274;12.292;2022-07-05T06:58:58;3.63;;;3.30;;
1799;SDS011;919;48.274;12.292;2022-07-05T07:01:25;4.40;;;3.30;;
1799;SDS011;919;48.274;12.292;2022-07-05T07:03:52;3.33;;;3.07;;
1799;SDS011;919;48.274;12.292;2022-07-05T07:09:51;3.80;;;3.50;;
1799;SDS011;919;48.274;12.292;2022-07-05T07:12:17;4.10;;;3.47;;
1799;SDS011;919;48.274;12.292;2022-07-05T07:14:44;3.57;;;3.27;;
1799;SDS011;919;48.274;12.292;2022-07-05T07:17:11;4.20;;;3.90;;
1799;SDS011;919;48.274;12.292;2022-07-05T07:19:38;3.70;;;3.40;;
1799;SDS011;919;48.274;12.292;2022-07-05T07:22:05;3.37;;;3.07;;
1799;SDS011;919;48.274;12.292;2022-07-05T07:24:32;3.80;;;3.50;;
1799;SDS011;919;48.274;12.292;2022-07-05T07:27:00;3.20;;;2.90;;
1799;SDS011;919;48.274;12.292;2022-07-05T07:29:30;3.30;;;3.10;;
1799;SDS011;919;48.274;12.292;2022-07-05T07:31:57;3.77;;;3.50;;
1799;SDS011;919;48.274;12.292;2022-07-05T07:34:25;7.17;;;3.43;;
1799;SDS011;919;48.274;12.292;2022-07-05T07:36:52;2.90;;;2.70;;
1799;SDS011;919;48.274;12.292;2022-07-05T07:39:20;5.10;;;3.10;;
1799;SDS011;919;48.274;12.292;2022-07-05T07:41:48;2.70;;;2.60;;
1799;SDS011;919;48.274;12.292;2022-07-05T07:44:16;3.47;;;3.17;;
1799;SDS011;919;48.274;12.292;2022-07-05T07:46:43;3.37;;;3.17;;
1799;SDS011;919;48.274;12.292;2022-07-05T07:49:10;4.70;;;3.30;;
1799;SDS011;919;48.274;12.292;2022-07-05T07:51:37;3.17;;;2.90;;
1799;SDS011;919;48.274;12.292;2022-07-05T07:54:04;3.90;;;3.60;;
1799;SDS011;919;48.274;12.292;2022-07-05T07:56:31;3.03;;;2.80;;
1799;SDS011;919;48.274;12.292;2022-07-05T07:58:58;4.60;;;3.33;;
1799;SDS011;919;48.274;12.292;2022-07-05T08:01:27;3.30;;;2.93;;
1799;SDS011;919;48.274;12.292;2022-07-05T08:03:54;3.37;;;3.17;;
1799;SDS011;919;48.274;12.292;2022-07-05T08:06:20;6.33;;;2.77;;
1799;SDS011;919;48.274;12.292;2022-07-05T08:08:47;3.63;;;3.30;;
1799;SDS011;919;48.274;12.292;2022-07-05T08:11:14;3.40;;;3.10;;
1799;SDS011;919;48.274;12.292;2022-07-05T08:13:41;3.30;;;3.00;;
1799;SDS011;919;48.274;12.292;2022-07-05T08:16:08;3.57;;;3.30;;
1799;SDS011;919;48.274;12.292;2022-07-05T08:18:37;3.07;;;2.87;;
1799;SDS011;919;48.274;12.292;2022-07-05T08:21:22;3.13;;;2.93;;
1799;SDS011;919;48.274;12.292;2022-07-05T08:23:57;2.67;;;2.47;;
1799;SDS011;919;48.274;12.292;2022-07-05T08:26:25;3.03;;;2.83;;
1799;SDS011;919;48.274;12.292;2022-07-05T08:28:51;3.50;;;3.10;;
1799;SDS011;919;48.274;12.292;2022-07-05T08:31:18;3.60;;;3.40;;
1799;SDS011;919;48.274;12.292;2022-07-05T08:33:47;3.73;;;3.43;;
1799;SDS011;919;48.274;12.292;2022-07-05T08:36:13;3.77;;;3.47;;
1799;SDS011;919;48.274;12.292;2022-07-05T08:38:40;3.17;;;2.97;;
1799;SDS011;919;48.274;12.292;2022-07-05T08:41:07;3.30;;;3.10;;
1799;SDS011;919;48.274;12.292;2022-07-05T08:43:37;3.17;;;2.97;;
1799;SDS011;919;48.274;12.292;2022-07-05T08:49:30;2.83;;;2.63;;
1799;SDS011;919;48.274;12.292;2022-07-05T08:51:59;3.17;;;2.97;;
1799;SDS011;919;48.274;12.292;2022-07-05T08:54:29;3.70;;;2.93;;
1799;SDS011;919;48.274;12.292;2022-07-05T08:56:56;5.53;;;3.70;;
1799;SDS011;919;48.274;12.292;2022-07-05T08:59:23;3.50;;;3.27;;
1799;SDS011;919;48.274;12.292;2022-07-05T09:01:50;3.90;;;3.60;;
1799;SDS011;919;48.274;12.292;2022-07-05T09:04:18;5.63;;;5.13;;
1799;SDS011;919;48.274;12.292;2022-07-05T09:06:48;4.33;;;4.03;;
1799;SDS011;919;48.274;12.292;2022-07-05T09:09:17;5.00;;;4.53;;
1799;SDS011;919;48.274;12.292;2022-07-05T09:11:45;5.03;;;3.93;;
1799;SDS011;919;48.274;12.292;2022-07-05T09:14:18;4.17;;;3.87;;
1799;SDS011;919;48.274;12.292;2022-07-05T09:16:47;4.17;;;3.30;;
1799;SDS011;919;48.274;12.292;2022-07-05T09:19:14;6.03;;;4.17;;
1799;SDS011;919;48.274;12.292;2022-07-05T09:21:40;4.37;;;4.00;;
1799;SDS011;919;48.274;12.292;2022-07-05T09:24:19;4.40;;;3.97;;
1799;SDS011;919;48.274;12.292;2022-07-05T09:26:46;3.80;;;3.50;;
1799;SDS011;919;48.274;12.292;2022-07-05T09:29:14;4.27;;;3.97;;
1799;SDS011;919;48.274;12.292;2022-07-05T09:31:43;3.90;;;3.70;;
1799;SDS011;919;48.274;12.292;2022-07-05T09:34:11;3.80;;;3.50;;
1799;SDS011;919;48.274;12.292;2022-07-05T09:36:46;5.13;;;4.53;;
1799;SDS011;919;48.274;12.292;2022-07-05T09:39:13;3.70;;;3.50;;
1799;SDS011;919;48.274;12.292;2022-07-05T09:41:42;4.50;;;4.20;;
1799;SDS011;919;48.274;12.292;2022-07-05T09:44:08;4.20;;;3.90;;
1799;SDS011;919;48.274;12.292;2022-07-05T09:46:35;4.03;;;3.83;;
1799;SDS011;919;48.274;12.292;2022-07-05T09:49:02;3.93;;;3.73;;
1799;SDS011;919;48.274;12.292;2022-07-05T09:51:29;4.00;;;3.70;;
1799;SDS011;919;48.274;12.292;2022-07-05T09:54:15;3.67;;;3.37;;
1799;SDS011;919;48.274;12.292;2022-07-05T09:56:46;3.60;;;3.40;;
1799;SDS011;919;48.274;12.292;2022-07-05T09:59:15;3.53;;;3.23;;
1799;SDS011;919;48.274;12.292;2022-07-05T10:01:43;5.37;;;4.37;;
1799;SDS011;919;48.274;12.292;2022-07-05T10:04:10;3.37;;;3.17;;
1799;SDS011;919;48.274;12.292;2022-07-05T10:06:37;4.30;;;3.63;;
1799;SDS011;919;48.274;12.292;2022-07-05T10:09:04;3.60;;;3.30;;
1799;SDS011;919;48.274;12.292;2022-07-05T10:11:31;3.90;;;3.60;;
1799;SDS011;919;48.274;12.292;2022-07-05T10:13:59;5.17;;;3.80;;
1799;SDS011;919;48.274;12.292;2022-07-05T10:16:35;3.70;;;3.50;;
1799;SDS011;919;48.274;12.292;2022-07-05T10:19:02;3.50;;;3.30;;
1799;SDS011;919;48.274;12.292;2022-07-05T10:21:32;3.50;;;3.30;;
1799;SDS011;919;48.274;12.292;2022-07-05T10:23:59;3.73;;;3.50;;
1799;SDS011;919;48.274;12.292;2022-07-05T10:26:26;3.33;;;3.13;;
1799;SDS011;919;48.274;12.292;2022-07-05T10:28:57;5.07;;;2.90;;
1799;SDS011;919;48.274;12.292;2022-07-05T10:31:26;2.87;;;2.73;;
1799;SDS011;919;48.274;12.292;2022-07-05T10:33:54;3.97;;;3.27;;
1799;SDS011;919;48.274;12.292;2022-07-05T10:36:21;3.23;;;3.00;;
1799;SDS011;919;48.274;12.292;2022-07-05T10:38:49;2.80;;;2.60;;
1799;SDS011;919;48.274;12.292;2022-07-05T10:41:17;2.70;;;2.60;;
1799;SDS011;919;48.274;12.292;2022-07-05T10:43:51;5.00;;;3.17;;
1799;SDS011;919;48.274;12.292;2022-07-05T10:46:22;3.03;;;2.77;;
1799;SDS011;919;48.274;12.292;2022-07-05T10:49:09;4.07;;;3.63;;
1799;SDS011;919;48.274;12.292;2022-07-05T10:51:40;3.07;;;2.83;;
1799;SDS011;919;48.274;12.292;2022-07-05T10:54:07;3.07;;;2.87;;
1799;SDS011;919;48.274;12.292;2022-07-05T10:56:34;3.57;;;3.27;;
1799;SDS011;919;48.274;12.292;2022-07-05T10:59:08;3.17;;;2.97;;
1799;SDS011;919;48.274;12.292;2022-07-05T11:01:40;3.10;;;2.90;;
1799;SDS011;919;48.274;12.292;2022-07-05T11:04:26;3.20;;;3.00;;
1799;SDS011;919;48.274;12.292;2022-07-05T11:06:57;3.07;;;2.87;;
1799;SDS011;919;48.274;12.292;2022-07-05T11:49:54;2.60;;;2.50;;
1799;SDS011;919;48.274;12.292;2022-07-05T11:52:24;2.10;;;2.00;;
1799;SDS011;919;48.274;12.292;2022-07-05T11:54:51;3.83;;;2.03;;
1799;SDS011;919;48.274;12.292;2022-07-05T11:57:18;1.77;;;1.67;;
1799;SDS011;919;48.274;12.292;2022-07-05T11:59:46;1.97;;;1.87;;
1799;SDS011;919;48.274;12.292;2022-07-05T12:02:13;1.90;;;1.80;;
1799;SDS011;919;48.274;12.292;2022-07-05T12:14:49;1.60;;;1.50;;
1799;SDS011;919;48.274;12.292;2022-07-05T12:17:17;1.63;;;1.53;;
1799;SDS011;919;48.274;12.292;2022-07-05T12:19:45;2.33;;;1.80;;
1799;SDS011;919;48.274;12.292;2022-07-05T12:22:12;1.70;;;1.60;;
1799;SDS011;919;48.274;12.292;2022-07-05T12:24:39;1.93;;;1.83;;
1799;SDS011;919;48.274;12.292;2022-07-05T12:27:06;1.70;;;1.60;;
1799;SDS011;919;48.274;12.292;2022-07-05T12:29:36;1.90;;;1.80;;
1799;SDS011;919;48.274;12.292;2022-07-05T12:32:04;1.80;;;1.70;;
1799;SDS011;919;48.274;12.292;2022-07-05T12:34:34;1.93;;;1.80;;
1799;SDS011;919;48.274;12.292;2022-07-05T12:37:00;1.67;;;1.57;;
1799;SDS011;919;48.274;12.292;2022-07-05T12:39:28;5.23;;;1.83;;
1799;SDS011;919;48.274;12.292;2022-07-05T12:41:55;3.07;;;1.77;;
1799;SDS011;919;48.274;12.292;2022-07-05T12:44:22;1.53;;;1.43;;
1799;SDS011;919;48.274;12.292;2022-07-05T12:46:49;1.80;;;1.70;;
1799;SDS011;919;48.274;12.292;2022-07-05T12:49:18;2.10;;;1.90;;
1799;SDS011;919;48.274;12.292;2022-07-05T12:51:45;2.40;;;2.30;;
1799;SDS011;919;48.274;12.292;2022-07-05T12:54:19;3.93;;;2.00;;
1799;SDS011;919;48.274;12.292;2022-07-05T12:57:05;1.97;;;1.80;;
1799;SDS011;919;48.274;12.292;2022-07-05T12:59:59;2.23;;;2.13;;
1799;SDS011;919;48.274;12.292;2022-07-05T13:02:37;2.10;;;1.97;;
1799;SDS011;919;48.274;12.292;2022-07-05T13:05:08;2.40;;;2.20;;
1799;SDS011;919;48.274;12.292;2022-07-05T13:07:41;8.60;;;2.10;;
1799;SDS011;919;48.274;12.292;2022-07-05T13:10:15;3.30;;;2.07;;
1799;SDS011;919;48.274;12.292;2022-07-05T13:12:43;2.50;;;2.30;;
1799;SDS011;919;48.274;12.292;2022-07-05T13:15:10;1.80;;;1.70;;
1799;SDS011;919;48.274;12.292;2022-07-05T13:17:37;2.30;;;2.20;;
1799;SDS011;919;48.274;12.292;2022-07-05T13:20:04;2.30;;;1.70;;
1799;SDS011;919;48.274;12.292;2022-07-05T13:22:33;2.50;;;2.00;;
1799;SDS011;919;48.274;12.292;2022-07-05T13:25:00;2.20;;;2.10;;
1799;SDS011;919;48.274;12.292;2022-07-05T13:27:28;2.13;;;2.03;;
1799;SDS011;919;48.274;12.292;2022-07-05T13:29:55;2.00;;;1.90;;
1799;SDS011;919;48.274;12.292;2022-07-05T13:32:22;2.00;;;1.90;;
1799;SDS011;919;48.274;12.292;2022-07-05T13:34:48;2.10;;;2.00;;
1799;SDS011;919;48.274;12.292;2022-07-05T13:37:17;2.10;;;1.90;;
1799;SDS011;919;48.274;12.292;2022-07-05T13:39:44;2.00;;;1.90;;
1799;SDS011;919;48.274;12.292;2022-07-05T13:42:11;2.50;;;2.00;;
1799;SDS011;919;48.274;12.292;2022-07-05T13:44:38;2.10;;;1.90;;
1799;SDS011;919;48.274;12.292;2022-07-05T13:47:05;1.97;;;1.87;;
1799;SDS011;919;48.274;12.292;2022-07-05T13:49:32;2.33;;;2.20;;
1799;SDS011;919;48.274;12.292;2022-07-05T13:51:59;1.83;;;1.70;;
1799;SDS011;919;48.274;12.292;2022-07-05T13:54:28;2.03;;;1.73;;
1799;SDS011;919;48.274;12.292;2022-07-05T13:56:55;2.27;;;1.90;;
1799;SDS011;919;48.274;12.292;2022-07-05T13:59:22;6.10;;;2.07;;
1799;SDS011;919;48.274;12.292;2022-07-05T14:01:49;2.40;;;2.20;;
1799;SDS011;919;48.274;12.292;2022-07-05T14:04:15;2.40;;;2.20;;
1799;SDS011;919;48.274;12.292;2022-07-05T14:06:42;3.33;;;1.90;;
1799;SDS011;919;48.274;12.292;2022-07-05T14:09:09;2.10;;;2.00;;
1799;SDS011;919;48.274;12.292;2022-07-05T14:11:37;2.03;;;1.93;;
1799;SDS011;919;48.274;12.292;2022-07-05T14:14:04;1.83;;;1.73;;
1799;SDS011;919;48.274;12.292;2022-07-05T14:16:30;2.27;;;2.07;;
1799;SDS011;919;48.274;12.292;2022-07-05T14:18:57;2.37;;;2.27;;
1799;SDS011;919;48.274;12.292;2022-07-05T14:21:24;3.00;;;2.80;;
1799;SDS011;919;48.274;12.292;2022-07-05T14:23:50;2.20;;;2.10;;
1799;SDS011;919;48.274;12.292;2022-07-05T14:26:17;2.30;;;2.20;;
1799;SDS011;919;48.274;12.292;2022-07-05T14:28:45;2.73;;;2.00;;
1799;SDS011;919;48.274;12.292;2022-07-05T14:31:12;2.70;;;2.10;;
1799;SDS011;919;48.274;12.292;2022-07-05T14:33:38;2.20;;;2.00;;
1799;SDS011;919;48.274;12.292;2022-07-05T14:36:05;2.30;;;2.20;;
1799;SDS011;919;48.274;12.292;2022-07-05T14:38:32;2.30;;;1.80;;
1799;SDS011;919;48.274;12.292;2022-07-05T14:40:59;2.50;;;2.30;;
1799;SDS011;919;48.274;12.292;2022-07-05T14:43:26;1.93;;;1.83;;
1799;SDS011;919;48.274;12.292;2022-07-05T14:45:54;2.97;;;2.30;;
1799;SDS011;919;48.274;12.292;2022-07-05T14:48:21;1.90;;;1.80;;
1799;SDS011;919;48.274;12.292;2022-07-05T14:50:48;1.57;;;1.47;;
1799;SDS011;919;48.274;12.292;2022-07-05T14:53:15;2.07;;;1.97;;
1799;SDS011;919;48.274;12.292;2022-07-05T14:55:43;2.63;;;2.00;;
1799;SDS011;919;48.274;12.292;2022-07-05T14:58:10;1.73;;;1.63;;
1799;SDS011;919;48.274;12.292;2022-07-05T15:00:37;2.87;;;1.60;;
1799;SDS011;919;48.274;12.292;2022-07-05T15:03:06;1.50;;;1.40;;
1799;SDS011;919;48.274;12.292;2022-07-05T15:05:34;1.90;;;1.57;;
1799;SDS011;919;48.274;12.292;2022-07-05T15:08:01;1.77;;;1.67;;
1799;SDS011;919;48.274;12.292;2022-07-05T15:10:28;1.63;;;1.53;;
1799;SDS011;919;48.274;12.292;2022-07-05T15:12:55;1.70;;;1.60;;
1799;SDS011;919;48.274;12.292;2022-07-05T15:15:22;1.73;;;1.50;;
1799;SDS011;919;48.274;12.292;2022-07-05T15:17:49;2.80;;;1.80;;
1799;SDS011;919;48.274;12.292;2022-07-05T15:20:17;1.57;;;1.40;;
1799;SDS011;919;48.274;12.292;2022-07-05T15:22:47;2.10;;;1.60;;
1799;SDS011;919;48.274;12.292;2022-07-05T15:25:14;1.27;;;1.27;;
1799;SDS011;919;48.274;12.292;2022-07-05T15:27:41;1.23;;;1.23;;
1799;SDS011;919;48.274;12.292;2022-07-05T15:30:08;2.70;;;1.43;;
1799;SDS011;919;48.274;12.292;2022-07-05T15:32:35;2.13;;;1.63;;
1799;SDS011;919;48.274;12.292;2022-07-05T15:35:02;1.77;;;1.67;;
1799;SDS011;919;48.274;12.292;2022-07-05T15:37:31;3.87;;;1.80;;
1799;SDS011;919;48.274;12.292;2022-07-05T15:39:57;1.80;;;1.70;;
1799;SDS011;919;48.274;12.292;2022-07-05T15:42:25;1.87;;;1.50;;
1799;SDS011;919;48.274;12.292;2022-07-05T15:44:52;2.93;;;1.40;;
1799;SDS011;919;48.274;12.292;2022-07-05T15:47:18;1.70;;;1.60;;
1799;SDS011;919;48.274;12.292;2022-07-05T15:49:45;2.20;;;1.50;;
1799;SDS011;919;48.274;12.292;2022-07-05T15:52:12;1.43;;;1.33;;
1799;SDS011;919;48.274;12.292;2022-07-05T15:54:40;2.13;;;1.70;;
1799;SDS011;919;48.274;12.292;2022-07-05T15:57:07;5.37;;;1.40;;
1799;SDS011;919;48.274;12.292;2022-07-05T15:59:33;1.93;;;1.80;;
1799;SDS011;919;48.274;12.292;2022-07-05T16:02:00;1.37;;;1.27;;
1799;SDS011;919;48.274;12.292;2022-07-05T16:04:27;1.57;;;1.47;;
1799;SDS011;919;48.274;12.292;2022-07-05T16:06:55;2.80;;;1.70;;
1799;SDS011;919;48.274;12.292;2022-07-05T16:09:22;1.27;;;1.27;;
1799;SDS011;919;48.274;12.292;2022-07-05T16:11:51;1.13;;;1.13;;
1799;SDS011;919;48.274;12.292;2022-07-05T16:14:18;1.50;;;1.40;;
1799;SDS011;919;48.274;12.292;2022-07-05T16:16:44;1.50;;;1.40;;